Time;durP1;ratioP1;P1;durP2;ratioP2;P2;SDS_P1;SDS_P2;PMS_P1;PMS_P2;Temp;Humidity;BMP_temperature;BMP_pressure;BME280_temperature;BME280_humidity;BME280_pressure;Samples;Min_cycle;Max_cycle;Signal;HPM_P1;HPM_P2
2021/03/14 00:02:21;;;;;;;2.17;1.00;;;8.90;95.20;;;;;;4951373;28;20722;-77
2021/03/14 00:04:47;;;;;;;2.00;1.30;;;8.80;95.70;;;;;;4948093;29;20324;-76
2021/03/14 00:07:14;;;;;;;1.33;1.00;;;8.80;95.60;;;;;;4952052;28;20293;-78
2021/03/14 00:09:41;;;;;;;1.10;1.00;;;8.70;95.90;;;;;;4949533;29;20357;-76
2021/03/14 00:12:08;;;;;;;2.30;1.23;;;8.70;96.30;;;;;;4950263;29;20292;-76
2021/03/14 00:14:35;;;;;;;2.50;1.30;;;8.60;96.90;;;;;;4947840;28;20751;-77
2021/03/14 00:17:01;;;;;;;2.17;1.40;;;8.50;97.60;;;;;;4951396;29;20238;-76
2021/03/14 00:19:29;;;;;;;2.40;1.20;;;8.50;98.20;;;;;;4949047;29;20724;-76
2021/03/14 00:21:56;;;;;;;1.97;1.27;;;8.40;98.70;;;;;;4955065;29;20213;-77
2021/03/14 00:24:22;;;;;;;3.20;1.77;;;8.30;99.30;;;;;;4952905;28;20316;-77
2021/03/14 00:26:52;;;;;;;2.33;1.30;;;8.30;99.90;;;;;;4949932;29;20214;-77
2021/03/14 00:29:18;;;;;;;2.70;1.10;;;8.20;99.90;;;;;;4955292;28;20212;-77
2021/03/14 00:31:45;;;;;;;2.60;1.43;;;8.20;99.90;;;;;;4951442;28;20231;-76
2021/03/14 00:34:11;;;;;;;2.10;1.20;;;8.20;99.90;;;;;;4953268;28;20226;-77
2021/03/14 00:36:37;;;;;;;2.33;1.30;;;8.10;99.90;;;;;;4956232;28;20216;-76
2021/03/14 00:39:04;;;;;;;2.67;1.20;;;8.20;99.90;;;;;;4952561;28;20237;-77
2021/03/14 00:41:31;;;;;;;3.23;1.23;;;8.10;99.90;;;;;;4950712;28;20288;-76
2021/03/14 00:43:58;;;;;;;1.93;1.13;;;8.00;99.90;;;;;;4950590;29;20218;-77
2021/03/14 00:46:27;;;;;;;1.93;1.10;;;8.00;99.90;;;;;;4954279;28;20271;-77
2021/03/14 00:48:55;;;;;;;1.70;0.93;;;7.90;99.90;;;;;;4951639;28;20304;-77
2021/03/14 00:51:22;;;;;;;2.13;1.57;;;7.90;99.90;;;;;;4953663;28;20210;-76
2021/03/14 00:53:50;;;;;;;1.13;1.03;;;7.90;99.90;;;;;;4946559;29;20205;-76
2021/03/14 00:56:17;;;;;;;2.47;1.20;;;7.80;99.90;;;;;;4956361;28;20228;-77
2021/03/14 00:58:44;;;;;;;1.50;1.40;;;7.80;99.90;;;;;;4974671;28;20205;-76
2021/03/14 01:01:11;;;;;;;2.27;1.37;;;7.80;99.90;;;;;;4956287;28;20292;-76
2021/03/14 01:03:38;;;;;;;2.37;1.13;;;7.70;99.90;;;;;;4952919;28;20604;-76
2021/03/14 01:06:04;;;;;;;2.43;1.20;;;7.70;99.90;;;;;;4950049;28;20241;-76
2021/03/14 01:08:31;;;;;;;1.67;1.20;;;7.60;99.90;;;;;;4954282;28;20217;-76
2021/03/14 01:10:57;;;;;;;2.37;1.13;;;7.60;99.90;;;;;;4951796;28;20647;-76
2021/03/14 01:13:24;;;;;;;1.70;0.90;;;7.60;99.90;;;;;;4951566;28;20229;-76
2021/03/14 01:15:50;;;;;;;2.03;1.40;;;7.60;99.90;;;;;;4951683;28;20295;-77
2021/03/14 01:18:18;;;;;;;1.77;1.07;;;7.60;99.90;;;;;;4952189;29;20750;-77
2021/03/14 01:20:44;;;;;;;2.10;1.20;;;7.60;99.90;;;;;;4953412;28;20352;-77
2021/03/14 01:23:11;;;;;;;2.27;1.20;;;7.60;99.90;;;;;;4950096;29;20699;-75
2021/03/14 01:25:37;;;;;;;1.60;1.10;;;7.70;99.90;;;;;;4947593;29;20634;-76
2021/03/14 01:28:04;;;;;;;1.73;0.97;;;7.60;99.90;;;;;;4949287;28;20265;-76
2021/03/14 01:30:30;;;;;;;2.03;1.30;;;7.70;99.90;;;;;;4950024;29;20286;-75
2021/03/14 01:32:57;;;;;;;2.53;1.30;;;7.70;99.90;;;;;;4947856;28;20209;-76
2021/03/14 01:35:24;;;;;;;1.40;1.20;;;7.70;99.90;;;;;;4948660;29;20356;-77
2021/03/14 01:37:50;;;;;;;1.43;1.30;;;7.60;99.90;;;;;;4951553;28;20296;-77
2021/03/14 01:40:18;;;;;;;0.90;0.80;;;7.60;99.90;;;;;;4949545;29;20320;-77
2021/03/14 01:42:46;;;;;;;2.23;1.30;;;7.50;99.90;;;;;;4952345;29;20209;-76
2021/03/14 01:45:14;;;;;;;1.80;0.97;;;7.40;99.90;;;;;;4950315;28;20581;-77
2021/03/14 01:47:42;;;;;;;2.80;1.40;;;7.40;99.90;;;;;;4953559;28;20726;-76
2021/03/14 01:50:10;;;;;;;2.00;1.33;;;7.40;99.90;;;;;;4951154;29;20237;-76
2021/03/14 01:52:38;;;;;;;1.83;1.10;;;7.30;99.90;;;;;;4947506;28;20225;-76
2021/03/14 01:55:06;;;;;;;2.00;1.20;;;7.30;99.90;;;;;;4952994;28;20682;-76
2021/03/14 01:57:33;;;;;;;1.80;1.20;;;7.30;99.90;;;;;;4951415;28;20217;-76
2021/03/14 02:00:00;;;;;;;2.40;1.00;;;7.20;99.90;;;;;;4952882;28;20776;-76
2021/03/14 02:02:28;;;;;;;1.57;1.20;;;7.20;99.90;;;;;;4951275;28;20237;-77
2021/03/14 02:04:55;;;;;;;3.57;1.43;;;7.20;99.90;;;;;;4955442;28;20229;-77
2021/03/14 02:07:21;;;;;;;2.83;1.63;;;7.10;99.90;;;;;;4951520;28;20296;-75
2021/03/14 02:09:49;;;;;;;1.77;1.20;;;7.10;99.90;;;;;;4954428;29;20297;-76
2021/03/14 02:12:18;;;;;;;3.20;1.60;;;7.10;99.90;;;;;;4949728;28;20798;-76
2021/03/14 02:14:46;;;;;;;5.03;1.67;;;7.10;99.90;;;;;;4951317;29;20244;-75
2021/03/14 02:17:17;;;;;;;2.43;1.30;;;7.10;99.90;;;;;;4949883;29;20205;-75
2021/03/14 02:19:51;;;;;;;5.27;1.80;;;7.00;99.90;;;;;;4946977;29;20241;-76
2021/03/14 02:22:20;;;;;;;1.97;1.40;;;7.00;99.90;;;;;;4972916;28;20205;-76
2021/03/14 02:24:52;;;;;;;2.20;1.43;;;7.00;99.90;;;;;;4947661;28;20251;-76
2021/03/14 02:27:20;;;;;;;3.00;1.53;;;7.00;99.90;;;;;;4944598;28;20217;-75
2021/03/14 02:29:47;;;;;;;3.53;1.37;;;6.90;99.90;;;;;;4950794;28;20239;-76
2021/03/14 02:32:17;;;;;;;3.30;1.50;;;6.90;99.90;;;;;;4948961;28;20270;-75
2021/03/14 02:34:47;;;;;;;2.63;1.50;;;6.80;99.90;;;;;;4950083;29;20209;-76
2021/03/14 02:37:14;;;;;;;2.17;1.20;;;6.80;99.90;;;;;;4949063;28;20206;-75
2021/03/14 02:39:42;;;;;;;2.93;1.40;;;6.80;99.90;;;;;;4953735;28;20220;-76
2021/03/14 02:42:11;;;;;;;1.77;1.07;;;6.80;99.90;;;;;;4947868;28;20320;-76
2021/03/14 02:44:44;;;;;;;3.30;1.47;;;6.70;99.90;;;;;;4948778;29;20582;-76
2021/03/14 02:47:11;;;;;;;2.90;1.33;;;6.70;99.90;;;;;;4949994;28;20213;-76
2021/03/14 02:49:38;;;;;;;1.87;1.20;;;6.70;99.90;;;;;;4949595;28;20300;-76
2021/03/14 02:52:05;;;;;;;2.07;1.27;;;6.70;99.90;;;;;;4953371;28;21060;-76
2021/03/14 02:54:33;;;;;;;2.57;1.13;;;6.70;99.90;;;;;;4949019;28;20559;-75
2021/03/14 02:57:01;;;;;;;2.10;1.20;;;6.70;99.90;;;;;;4952496;28;20295;-76
2021/03/14 02:59:28;;;;;;;2.30;1.07;;;6.60;99.90;;;;;;4955321;28;20210;-75
2021/03/14 03:01:56;;;;;;;2.60;1.40;;;6.60;99.90;;;;;;4953631;28;20623;-76
2021/03/14 03:04:24;;;;;;;3.47;1.73;;;6.60;99.90;;;;;;4947981;28;20221;-76
2021/03/14 03:06:51;;;;;;;1.27;1.13;;;6.60;99.90;;;;;;4948188;28;20209;-76
2021/03/14 03:09:18;;;;;;;2.27;1.20;;;6.60;99.90;;;;;;4947184;29;20206;-75
2021/03/14 03:11:48;;;;;;;4.90;1.33;;;6.60;99.90;;;;;;4952074;29;20749;-76
2021/03/14 03:14:17;;;;;;;2.30;1.30;;;6.60;99.90;;;;;;4948141;28;20781;-74
2021/03/14 03:16:47;;;;;;;3.27;1.50;;;6.50;99.90;;;;;;4949610;29;20302;-76
2021/03/14 03:19:16;;;;;;;2.27;1.20;;;6.50;99.90;;;;;;4948467;28;20233;-75
2021/03/14 03:21:43;;;;;;;2.70;1.40;;;6.50;99.90;;;;;;4949834;28;20217;-77
2021/03/14 03:24:10;;;;;;;2.07;1.10;;;6.40;99.90;;;;;;4950823;28;20319;-76
2021/03/14 03:26:38;;;;;;;1.70;1.10;;;6.40;99.90;;;;;;4949355;28;20244;-75
2021/03/14 03:29:04;;;;;;;3.30;1.30;;;6.40;99.90;;;;;;4949037;28;20232;-76
2021/03/14 03:31:31;;;;;;;2.37;1.30;;;6.40;99.90;;;;;;4949514;28;20300;-75
2021/03/14 03:33:58;;;;;;;3.73;1.23;;;6.40;99.90;;;;;;4949322;29;20214;-76
2021/03/14 03:36:25;;;;;;;1.87;1.10;;;6.40;99.90;;;;;;4951280;28;20581;-76
2021/03/14 03:38:51;;;;;;;2.53;1.43;;;6.40;99.90;;;;;;4943792;28;20653;-76
2021/03/14 03:41:18;;;;;;;4.43;1.40;;;6.40;99.90;;;;;;4952539;28;20684;-75
2021/03/14 03:43:45;;;;;;;1.77;1.50;;;6.40;99.90;;;;;;4953999;28;20232;-75
2021/03/14 03:46:14;;;;;;;2.37;1.33;;;6.30;99.90;;;;;;4950888;28;20723;-76
2021/03/14 03:48:46;;;;;;;3.17;1.67;;;6.30;99.90;;;;;;4947948;28;20239;-76
2021/03/14 03:51:14;;;;;;;2.83;1.20;;;6.30;99.90;;;;;;4952971;28;20236;-77
2021/03/14 03:53:43;;;;;;;2.63;1.50;;;6.30;99.90;;;;;;4951233;28;20209;-75
2021/03/14 03:56:10;;;;;;;4.47;1.67;;;6.30;99.90;;;;;;4954547;29;20640;-76
2021/03/14 03:58:38;;;;;;;1.30;1.20;;;6.30;99.90;;;;;;4960555;28;20224;-76
2021/03/14 04:01:05;;;;;;;2.30;1.30;;;6.30;99.90;;;;;;4955998;29;20658;-76
2021/03/14 04:03:35;;;;;;;2.43;1.33;;;6.30;99.90;;;;;;4967163;28;20317;-75
2021/03/14 04:06:02;;;;;;;1.93;1.30;;;6.30;99.90;;;;;;4961887;29;20262;-75
2021/03/14 04:08:31;;;;;;;1.30;1.20;;;6.30;99.90;;;;;;4960206;29;20219;-76
2021/03/14 04:10:59;;;;;;;2.40;1.00;;;6.30;99.90;;;;;;4959565;28;20217;-75
2021/03/14 04:13:27;;;;;;;1.83;1.17;;;6.20;99.90;;;;;;4960944;28;20225;-76
2021/03/14 04:15:53;;;;;;;2.60;1.30;;;6.20;99.90;;;;;;4960142;28;20217;-76
2021/03/14 04:18:22;;;;;;;2.00;1.30;;;6.20;99.90;;;;;;4962549;28;20214;-76
2021/03/14 04:20:50;;;;;;;2.37;1.20;;;6.20;99.90;;;;;;4956484;29;20236;-76
2021/03/14 04:23:21;;;;;;;1.43;1.30;;;6.20;99.90;;;;;;4954557;28;20328;-76
2021/03/14 04:25:51;;;;;;;3.37;1.27;;;6.20;99.90;;;;;;4952901;29;20636;-76
2021/03/14 04:28:20;;;;;;;2.43;1.40;;;6.20;99.90;;;;;;4954649;28;20217;-77
2021/03/14 04:30:46;;;;;;;3.67;1.27;;;6.20;99.90;;;;;;4955220;28;20349;-76
2021/03/14 04:33:14;;;;;;;0.83;0.80;;;6.20;99.90;;;;;;4955521;28;20273;-77
2021/03/14 04:35:41;;;;;;;3.17;1.40;;;6.20;99.90;;;;;;4950724;28;20296;-75
2021/03/14 04:38:08;;;;;;;1.73;1.27;;;6.20;99.90;;;;;;4945038;29;20695;-77
2021/03/14 04:40:36;;;;;;;1.37;1.10;;;6.20;99.90;;;;;;4949341;28;20213;-77
2021/03/14 04:43:05;;;;;;;2.50;1.37;;;6.10;99.90;;;;;;4951266;29;20237;-77
2021/03/14 04:45:34;;;;;;;2.60;1.33;;;6.20;99.90;;;;;;4948581;29;20206;-76
2021/03/14 04:48:01;;;;;;;1.60;1.30;;;6.10;99.90;;;;;;4945718;29;20583;-77
2021/03/14 04:50:29;;;;;;;2.27;1.50;;;6.10;99.90;;;;;;4946552;28;20296;-76
2021/03/14 04:52:57;;;;;;;2.90;1.27;;;6.10;99.90;;;;;;4953477;28;20304;-77
2021/03/14 04:55:25;;;;;;;1.23;1.00;;;6.10;99.90;;;;;;4951922;29;20356;-76
2021/03/14 04:57:52;;;;;;;1.40;1.20;;;6.10;99.90;;;;;;4952302;28;20205;-77
2021/03/14 05:00:20;;;;;;;4.87;1.50;;;6.20;99.90;;;;;;4953626;29;20240;-78
2021/03/14 05:02:52;;;;;;;4.17;1.77;;;6.10;99.90;;;;;;4947787;28;20214;-76
2021/03/14 05:05:19;;;;;;;1.83;1.17;;;6.10;99.90;;;;;;4953511;29;20264;-75
2021/03/14 05:07:47;;;;;;;2.20;1.20;;;6.10;99.90;;;;;;4952443;28;20726;-76
2021/03/14 05:10:17;;;;;;;2.10;1.50;;;6.20;99.90;;;;;;4951343;29;20722;-77
2021/03/14 05:12:44;;;;;;;2.03;1.27;;;6.10;99.90;;;;;;4953562;28;20903;-77
2021/03/14 05:15:13;;;;;;;2.70;1.40;;;6.10;99.90;;;;;;4949835;29;20348;-77
2021/03/14 05:17:45;;;;;;;3.80;1.33;;;6.00;99.90;;;;;;4955851;29;20263;-76
2021/03/14 05:20:15;;;;;;;1.80;1.30;;;6.00;99.90;;;;;;4950595;29;20691;-77
2021/03/14 05:22:43;;;;;;;2.67;1.57;;;6.00;99.90;;;;;;4954191;28;20236;-76
2021/03/14 05:25:12;;;;;;;2.37;1.53;;;6.00;99.90;;;;;;4953754;28;20229;-77
2021/03/14 05:27:41;;;;;;;1.63;1.30;;;6.00;99.90;;;;;;4954453;28;20738;-77
2021/03/14 05:30:08;;;;;;;3.20;1.50;;;6.00;99.90;;;;;;4953095;28;20580;-77
2021/03/14 05:32:35;;;;;;;2.57;1.50;;;6.00;99.90;;;;;;4954872;28;20214;-77
2021/03/14 05:35:01;;;;;;;3.30;1.60;;;6.10;99.90;;;;;;4947542;28;20213;-76
2021/03/14 05:37:30;;;;;;;4.20;1.33;;;6.10;99.90;;;;;;4952886;29;20734;-77
2021/03/14 05:39:56;;;;;;;2.10;1.40;;;6.10;99.90;;;;;;4952927;28;20279;-77
2021/03/14 05:42:23;;;;;;;3.70;1.90;;;5.90;99.90;;;;;;4953591;28;20341;-76
2021/03/14 05:44:50;;;;;;;3.30;2.27;;;6.00;99.90;;;;;;4951716;28;20312;-76
2021/03/14 05:47:17;;;;;;;3.77;1.60;;;6.00;99.90;;;;;;4955763;28;20213;-76
2021/03/14 05:49:43;;;;;;;2.53;1.37;;;6.00;99.90;;;;;;4979168;28;20237;-75
2021/03/14 05:52:14;;;;;;;2.93;1.40;;;6.10;99.90;;;;;;4948219;29;20297;-74
2021/03/14 05:54:41;;;;;;;2.93;1.40;;;6.10;99.90;;;;;;4952092;29;20520;-76
2021/03/14 05:57:09;;;;;;;3.10;1.40;;;6.10;99.90;;;;;;4949109;28;20295;-75
2021/03/14 05:59:37;;;;;;;2.20;1.63;;;6.10;99.90;;;;;;4952555;29;20229;-76
2021/03/14 06:02:04;;;;;;;2.17;1.73;;;6.10;99.90;;;;;;4948811;28;20639;-77
2021/03/14 06:04:32;;;;;;;1.57;1.20;;;6.10;99.90;;;;;;4947010;29;20324;-75
2021/03/14 06:06:58;;;;;;;3.47;1.87;;;6.20;99.90;;;;;;4949344;28;20210;-75
2021/03/14 06:09:24;;;;;;;3.83;1.90;;;6.20;99.90;;;;;;4950310;28;20309;-74
2021/03/14 06:11:52;;;;;;;3.90;1.87;;;6.20;99.90;;;;;;4949323;28;20213;-75
2021/03/14 06:14:18;;;;;;;4.20;1.97;;;6.20;99.90;;;;;;4953612;28;20229;-76
2021/03/14 06:16:47;;;;;;;2.40;1.53;;;6.20;99.90;;;;;;4949987;29;20264;-75
2021/03/14 06:19:14;;;;;;;2.67;1.70;;;6.20;99.90;;;;;;4949488;28;20252;-74
2021/03/14 06:21:40;;;;;;;1.93;1.50;;;6.20;99.90;;;;;;4952283;28;20213;-73
2021/03/14 06:24:09;;;;;;;2.00;1.57;;;6.20;99.90;;;;;;4950069;28;20217;-76
2021/03/14 06:26:38;;;;;;;3.47;2.03;;;6.20;99.90;;;;;;4949869;28;20213;-75
2021/03/14 06:29:26;;;;;;;3.40;1.90;;;6.20;99.90;;;;;;4948712;28;20206;-75
2021/03/14 06:31:55;;;;;;;4.83;1.90;;;6.30;99.90;;;;;;4948476;29;20743;-73
2021/03/14 06:34:31;;;;;;;2.83;1.70;;;6.30;99.90;;;;;;4950128;29;20237;-74
2021/03/14 06:37:00;;;;;;;3.47;2.00;;;6.40;99.90;;;;;;4946119;29;20197;-73
2021/03/14 06:39:28;;;;;;;3.23;1.80;;;6.40;99.90;;;;;;4951473;28;20209;-73
2021/03/14 06:41:55;;;;;;;3.77;2.10;;;6.50;99.90;;;;;;4949463;29;20729;-73
2021/03/14 06:44:27;;;;;;;2.97;1.80;;;6.50;99.90;;;;;;4953167;28;20323;-72
2021/03/14 06:46:54;;;;;;;3.57;2.10;;;6.60;99.90;;;;;;4953446;29;20722;-74
2021/03/14 06:49:24;;;;;;;2.10;1.60;;;6.70;99.90;;;;;;4950775;28;20205;-78
2021/03/14 06:51:52;;;;;;;4.00;2.20;;;6.80;99.90;;;;;;4946757;28;20670;-73
2021/03/14 06:54:27;;;;;;;5.30;1.80;;;6.90;99.90;;;;;;4949956;28;20221;-73
2021/03/14 06:57:08;;;;;;;4.23;2.03;;;7.00;99.90;;;;;;4948618;29;20201;-74
2021/03/14 06:59:38;;;;;;;2.47;1.80;;;7.10;99.90;;;;;;4946988;28;20684;-69
2021/03/14 07:02:06;;;;;;;3.00;1.67;;;7.10;99.90;;;;;;4946995;28;20217;-73
2021/03/14 07:04:38;;;;;;;2.37;2.00;;;7.10;99.90;;;;;;4949991;28;20233;-72
2021/03/14 07:07:05;;;;;;;2.40;1.60;;;7.10;99.90;;;;;;4945726;29;20293;-73
2021/03/14 07:09:32;;;;;;;5.33;2.00;;;7.10;99.90;;;;;;4948526;28;20209;-74
2021/03/14 07:12:00;;;;;;;3.30;1.87;;;7.10;99.90;;;;;;4948082;29;20622;-75
2021/03/14 07:14:27;;;;;;;3.77;1.80;;;7.20;99.90;;;;;;4948013;28;20597;-75
2021/03/14 07:16:57;;;;;;;5.37;1.80;;;7.30;99.90;;;;;;4947222;28;20605;-72
2021/03/14 07:19:26;;;;;;;2.70;1.50;;;7.40;99.90;;;;;;4951109;29;20315;-73
2021/03/14 07:22:04;;;;;;;4.10;1.20;;;7.50;99.90;;;;;;4947875;28;20209;-73
2021/03/14 07:24:33;;;;;;;3.30;1.60;;;7.70;99.90;;;;;;4950342;28;20229;-74
2021/03/14 07:27:00;;;;;;;2.77;1.70;;;7.80;99.90;;;;;;4949488;28;20254;-75
2021/03/14 07:29:28;;;;;;;4.53;1.93;;;8.00;99.90;;;;;;4951342;28;20205;-76
2021/03/14 07:31:57;;;;;;;1.70;1.40;;;8.10;99.90;;;;;;4949126;28;20216;-74
2021/03/14 07:34:24;;;;;;;3.40;1.70;;;8.20;99.90;;;;;;4950512;28;20213;-75
2021/03/14 07:36:50;;;;;;;3.17;1.80;;;8.30;99.90;;;;;;4946525;28;20236;-74
2021/03/14 07:39:17;;;;;;;2.33;1.43;;;8.30;99.90;;;;;;4950276;28;20213;-73
2021/03/14 07:41:44;;;;;;;3.23;1.40;;;8.50;99.90;;;;;;4945589;28;20240;-72
2021/03/14 07:44:11;;;;;;;6.13;1.47;;;8.60;99.90;;;;;;4948086;29;20235;-71
2021/03/14 07:46:41;;;;;;;2.60;1.50;;;8.80;99.90;;;;;;4950787;28;20272;-72
2021/03/14 07:49:13;;;;;;;2.97;1.73;;;9.00;99.90;;;;;;4947009;28;20210;-73
2021/03/14 07:51:42;;;;;;;2.70;1.50;;;9.10;99.30;;;;;;4944645;28;20217;-73
2021/03/14 07:54:11;;;;;;;2.47;1.47;;;9.20;98.30;;;;;;4948907;28;20267;-73
2021/03/14 07:56:39;;;;;;;2.03;1.37;;;9.50;97.40;;;;;;4945170;28;20257;-72
2021/03/14 07:59:06;;;;;;;4.00;1.83;;;9.60;96.20;;;;;;4953084;28;20247;-73
2021/03/14 08:01:37;;;;;;;3.37;1.33;;;9.70;95.40;;;;;;4951384;28;20252;-74
2021/03/14 08:04:04;;;;;;;3.87;1.57;;;9.90;94.10;;;;;;4951483;28;20289;-75
2021/03/14 08:06:51;;;;;;;2.87;1.70;;;10.00;92.60;;;;;;4951628;28;20288;-73
2021/03/14 08:09:43;;;;;;;2.80;1.40;;;10.10;92.00;;;;;;4950206;28;20205;-73
2021/03/14 08:12:24;;;;;;;4.03;1.57;;;10.20;90.30;;;;;;4949631;29;20723;-73
2021/03/14 08:14:53;;;;;;;2.77;2.00;;;10.20;89.10;;;;;;4951991;28;20391;-75
2021/03/14 08:17:21;;;;;;;2.33;1.33;;;10.30;87.20;;;;;;4947307;28;20220;-73
2021/03/14 08:19:49;;;;;;;3.77;1.40;;;10.40;85.20;;;;;;4947752;29;20685;-73
2021/03/14 08:22:46;;;;;;;1.60;1.50;;;10.40;83.80;;;;;;4946687;29;20210;-75
2021/03/14 08:25:27;;;;;;;2.80;1.50;;;10.50;82.00;;;;;;4949007;29;20264;-72
2021/03/14 08:27:56;;;;;;;2.47;1.30;;;10.40;80.80;;;;;;4953494;29;20205;-72
2021/03/14 08:30:45;;;;;;;2.73;1.30;;;10.50;80.10;;;;;;4953346;28;20220;-72
2021/03/14 08:33:31;;;;;;;3.27;1.50;;;10.50;78.70;;;;;;4953619;28;20227;-72
2021/03/14 08:36:00;;;;;;;4.43;1.77;;;10.50;77.50;;;;;;4953011;29;20674;-71
2021/03/14 08:38:44;;;;;;;3.50;1.63;;;10.40;77.60;;;;;;4954291;28;20579;-73
2021/03/14 08:41:26;;;;;;;3.20;1.83;;;10.60;77.20;;;;;;4954123;28;20292;-72
2021/03/14 08:43:55;;;;;;;1.97;1.40;;;10.70;75.40;;;;;;4952039;28;20221;-72
2021/03/14 08:46:57;;;;;;;3.67;1.90;;;10.80;75.50;;;;;;4951032;28;20210;-72
2021/03/14 08:49:24;;;;;;;3.10;1.90;;;10.80;75.10;;;;;;4952512;29;20316;-73
2021/03/14 08:51:52;;;;;;;3.17;1.67;;;11.00;73.90;;;;;;4951185;28;20296;-72
2021/03/14 08:54:26;;;;;;;3.20;1.83;;;11.00;73.40;;;;;;4952934;28;20201;-72
2021/03/14 08:56:56;;;;;;;3.70;1.60;;;11.10;73.00;;;;;;4950980;28;20213;-73
2021/03/14 08:59:24;;;;;;;2.93;1.70;;;11.20;72.50;;;;;;4953832;28;20209;-74
2021/03/14 09:01:53;;;;;;;2.30;1.33;;;11.30;72.60;;;;;;4952793;28;20214;-73
2021/03/14 09:04:22;;;;;;;3.43;1.53;;;11.30;71.90;;;;;;4953187;28;20225;-74
2021/03/14 09:06:48;;;;;;;7.43;2.00;;;11.30;70.00;;;;;;4954274;28;20220;-73
2021/03/14 09:09:17;;;;;;;2.53;1.40;;;11.30;70.00;;;;;;4955345;28;20638;-75
2021/03/14 09:11:47;;;;;;;3.30;1.30;;;11.50;69.50;;;;;;4953585;28;20655;-74
2021/03/14 09:14:38;;;;;;;3.73;1.20;;;11.70;68.80;;;;;;4952369;28;20265;-73
2021/03/14 09:17:11;;;;;;;2.93;1.50;;;11.90;67.70;;;;;;4951380;28;20205;-73
2021/03/14 09:19:43;;;;;;;3.27;1.20;;;12.40;69.40;;;;;;4947361;28;20740;-74
2021/03/14 09:22:13;;;;;;;5.73;1.70;;;12.80;62.40;;;;;;4950309;28;20789;-73
2021/03/14 09:24:47;;;;;;;2.67;1.40;;;13.10;65.10;;;;;;4947245;29;20226;-75
2021/03/14 09:27:18;;;;;;;1.57;1.23;;;14.30;59.20;;;;;;4950122;28;20217;-73
2021/03/14 09:29:47;;;;;;;3.37;1.17;;;16.80;55.10;;;;;;4951900;29;20257;-73
2021/03/14 09:32:26;;;;;;;2.07;0.90;;;19.80;47.50;;;;;;4951085;28;20211;-73
2021/03/14 09:35:12;;;;;;;2.13;1.10;;;21.50;42.00;;;;;;4944871;28;20559;-72
2021/03/14 09:37:39;;;;;;;3.03;1.03;;;22.00;38.80;;;;;;4950037;28;20210;-73
2021/03/14 09:40:17;;;;;;;1.53;0.93;;;21.30;37.10;;;;;;4944474;29;20209;-75
2021/03/14 09:42:47;;;;;;;2.90;0.93;;;19.80;37.20;;;;;;4947272;29;20588;-75
2021/03/14 09:45:15;;;;;;;1.97;1.20;;;18.00;39.20;;;;;;4952553;28;20231;-74
2021/03/14 09:48:08;;;;;;;2.73;1.10;;;16.50;41.20;;;;;;4942828;29;20665;-74
2021/03/14 09:50:38;;;;;;;2.23;1.20;;;15.10;43.40;;;;;;4954307;29;20312;-74
2021/03/14 09:53:05;;;;;;;3.13;1.30;;;14.00;45.20;;;;;;4952059;28;20213;-75
2021/03/14 09:55:34;;;;;;;2.03;1.10;;;13.30;47.00;;;;;;4943525;28;20216;-75
2021/03/14 09:58:02;;;;;;;2.63;1.43;;;12.70;48.30;;;;;;4947141;28;20644;-76
2021/03/14 10:00:30;;;;;;;4.67;1.10;;;12.10;49.00;;;;;;4941388;28;20209;-76
2021/03/14 10:03:01;;;;;;;4.13;1.30;;;11.80;50.10;;;;;;4939279;29;20346;-74
2021/03/14 10:05:34;;;;;;;2.70;1.07;;;11.50;51.00;;;;;;4947361;29;20305;-73
2021/03/14 10:08:01;;;;;;;2.17;1.40;;;11.30;51.90;;;;;;4945905;29;20744;-74
2021/03/14 10:10:28;;;;;;;3.53;1.50;;;11.10;52.50;;;;;;4950313;29;20205;-74
2021/03/14 10:12:55;;;;;;;3.27;1.10;;;11.00;53.10;;;;;;4946286;28;20637;-74
2021/03/14 10:15:24;;;;;;;1.63;1.37;;;11.80;71.00;;;;;;4960652;28;20233;-75
2021/03/14 10:17:50;;;;;;;2.20;1.60;;;13.50;54.70;;;;;;4950729;28;20277;-75
2021/03/14 10:20:21;;;;;;;3.17;1.50;;;14.00;51.70;;;;;;4954046;28;20256;-74
2021/03/14 10:22:57;;;;;;;3.27;1.70;;;14.10;50.70;;;;;;4947039;28;20592;-74
2021/03/14 10:25:25;;;;;;;3.07;1.20;;;14.40;52.50;;;;;;4947126;28;20218;-73
2021/03/14 10:27:52;;;;;;;2.17;1.37;;;14.50;52.30;;;;;;4948835;29;20584;-74
2021/03/14 10:30:20;;;;;;;1.53;1.20;;;14.30;50.10;;;;;;4950833;28;20292;-75
2021/03/14 10:32:48;;;;;;;2.03;1.43;;;13.80;50.80;;;;;;4947029;29;20221;-74
2021/03/14 10:35:15;;;;;;;1.60;1.17;;;13.30;51.90;;;;;;4942319;29;20680;-75
2021/03/14 10:37:42;;;;;;;2.07;1.30;;;13.10;55.40;;;;;;4946942;29;20221;-78
2021/03/14 10:40:11;;;;;;;2.63;1.53;;;13.30;52.30;;;;;;4941865;28;20213;-75
2021/03/14 10:42:41;;;;;;;3.73;1.30;;;13.40;57.60;;;;;;4945041;29;20284;-76
2021/03/14 10:45:12;;;;;;;2.07;1.27;;;13.70;51.80;;;;;;4956455;28;20249;-75
2021/03/14 10:47:39;;;;;;;1.97;1.10;;;13.90;51.30;;;;;;4943828;29;20206;-76
2021/03/14 10:50:09;;;;;;;3.20;1.73;;;13.80;50.60;;;;;;4940762;29;20205;-75
2021/03/14 10:52:36;;;;;;;3.77;1.83;;;13.50;51.20;;;;;;4943721;28;20210;-75
2021/03/14 10:55:20;;;;;;;3.70;1.30;;;13.10;52.00;;;;;;4944020;29;20364;-76
2021/03/14 10:57:46;;;;;;;2.77;1.40;;;13.40;54.40;;;;;;4946618;28;20216;-76
2021/03/14 11:00:15;;;;;;;2.80;1.60;;;13.60;57.50;;;;;;4946643;28;20739;-76
2021/03/14 11:02:48;;;;;;;2.33;1.67;;;16.50;55.30;;;;;;4947356;28;20214;-75
2021/03/14 11:05:21;;;;;;;3.37;1.57;;;20.60;48.80;;;;;;4940835;29;20270;-78
2021/03/14 11:07:58;;;;;;;3.00;1.60;;;24.30;39.30;;;;;;4939387;29;20252;-75
2021/03/14 11:10:24;;;;;;;2.25;1.63;;;26.60;34.40;;;;;;4940873;29;20201;-75
2021/03/14 11:12:51;;;;;;;2.33;1.48;;;28.40;33.20;;;;;;4940450;28;20655;-77
2021/03/14 11:15:26;;;;;;;5.03;1.48;;;30.60;30.00;;;;;;4951378;28;20233;-75
2021/03/14 11:17:53;;;;;;;2.20;1.60;;;31.40;27.10;;;;;;4950818;28;20299;-76
2021/03/14 11:20:22;;;;;;;5.00;1.80;;;29.20;27.30;;;;;;4942183;28;20238;-76
2021/03/14 11:22:50;;;;;;;2.83;1.85;;;26.20;29.20;;;;;;4938237;29;20328;-77
2021/03/14 11:25:18;;;;;;;2.80;1.65;;;23.30;31.80;;;;;;4949141;29;20221;-79
2021/03/14 11:27:44;;;;;;;2.78;1.50;;;20.80;34.90;;;;;;4943838;28;20293;-78
2021/03/14 11:30:11;;;;;;;4.03;1.80;;;18.70;37.70;;;;;;4950544;28;20220;-74
2021/03/14 11:32:38;;;;;;;2.80;1.87;;;17.20;40.30;;;;;;4944883;28;20659;-77
2021/03/14 11:35:06;;;;;;;2.37;1.30;;;15.90;42.10;;;;;;4943929;28;20230;-77
2021/03/14 11:37:33;;;;;;;3.07;1.70;;;14.90;43.80;;;;;;4954848;28;20292;-78
2021/03/14 11:40:00;;;;;;;1.50;1.30;;;13.90;45.40;;;;;;4947514;28;20230;-76
2021/03/14 11:42:28;;;;;;;4.43;1.50;;;13.20;46.80;;;;;;4943848;28;20243;-77
2021/03/14 11:44:55;;;;;;;3.13;1.23;;;12.50;48.00;;;;;;4954141;28;20233;-76
2021/03/14 11:47:22;;;;;;;2.83;1.63;;;12.00;49.20;;;;;;4944631;28;20633;-80
2021/03/14 11:49:49;;;;;;;1.90;1.50;;;11.50;50.10;;;;;;4944470;29;20220;-76
2021/03/14 11:52:15;;;;;;;3.77;1.40;;;11.10;51.30;;;;;;4954881;28;20292;-78
2021/03/14 11:54:43;;;;;;;2.53;1.50;;;10.90;52.50;;;;;;4955342;28;20613;-76
2021/03/14 11:57:11;;;;;;;4.10;1.73;;;10.70;53.20;;;;;;4948364;28;20296;-78
2021/03/14 11:59:38;;;;;;;2.37;1.40;;;10.60;53.90;;;;;;4945625;28;20268;-77
2021/03/14 12:02:05;;;;;;;1.80;1.30;;;10.60;56.30;;;;;;4944740;29;20213;-77
2021/03/14 12:04:33;;;;;;;3.20;1.13;;;12.50;60.60;;;;;;4947761;29;20239;-77
2021/03/14 12:06:59;;;;;;;2.57;1.50;;;16.10;53.30;;;;;;4955770;28;20216;-75
2021/03/14 12:09:26;;;;;;;1.90;1.20;;;19.30;45.00;;;;;;4955665;29;20611;-75
2021/03/14 12:11:54;;;;;;;4.87;1.20;;;22.00;39.70;;;;;;4950977;28;20218;-75
2021/03/14 12:14:21;;;;;;;2.23;0.93;;;23.80;37.70;;;;;;4954084;28;20268;-76
2021/03/14 12:16:48;;;;;;;1.50;1.08;;;25.40;35.20;;;;;;4952260;28;20213;-74
2021/03/14 12:19:14;;;;;;;2.55;1.40;;;25.70;34.30;;;;;;4946832;29;20240;-75
2021/03/14 12:21:41;;;;;;;1.25;1.13;;;25.80;33.40;;;;;;4952456;28;20209;-76
2021/03/14 12:24:09;;;;;;;1.73;1.30;;;24.60;32.10;;;;;;4954085;28;20683;-78
2021/03/14 12:26:35;;;;;;;2.33;1.50;;;22.80;33.60;;;;;;4957701;28;20248;-81
2021/03/14 12:29:06;;;;;;;3.75;1.60;;;21.00;35.10;;;;;;4952765;28;20223;-75
2021/03/14 12:31:33;;;;;;;2.60;1.20;;;19.20;36.90;;;;;;4951362;29;20221;-76
2021/03/14 12:33:59;;;;;;;2.47;1.50;;;17.50;39.40;;;;;;4946842;28;20230;-76
2021/03/14 12:36:26;;;;;;;8.97;7.00;;;16.10;41.50;;;;;;4954035;28;20243;-76
2021/03/14 12:38:52;;;;;;;2.37;1.90;;;14.90;43.50;;;;;;4953106;28;20210;-76
2021/03/14 12:41:19;;;;;;;4.57;1.70;;;14.00;45.40;;;;;;4951803;29;20288;-75
2021/03/14 12:43:46;;;;;;;1.70;1.60;;;13.20;47.00;;;;;;4947595;28;20309;-75
2021/03/14 12:46:13;;;;;;;2.20;1.30;;;12.50;48.60;;;;;;4943016;28;20214;-76
2021/03/14 12:48:40;;;;;;;2.60;1.83;;;12.00;50.00;;;;;;4954652;29;20294;-76
2021/03/14 12:51:06;;;;;;;4.60;2.40;;;11.50;51.80;;;;;;4945425;29;20214;-75
2021/03/14 12:53:33;;;;;;;3.27;2.27;;;11.10;54.10;;;;;;4957489;28;20307;-75
2021/03/14 12:56:00;;;;;;;3.03;2.47;;;10.60;56.40;;;;;;4940901;29;20623;-75
2021/03/14 12:58:26;;;;;;;3.60;2.30;;;10.20;58.80;;;;;;4947341;29;20670;-75
2021/03/14 13:00:52;;;;;;;2.33;2.00;;;9.90;62.70;;;;;;4946939;29;20411;-75
2021/03/14 13:03:20;;;;;;;2.93;2.30;;;9.70;65.20;;;;;;4939979;29;20214;-75